createdAt,value
2017-08-29T00:00:45.900Z,80.82
2017-08-29T00:01:47.784Z,80.35
2017-08-29T00:02:49.667Z,81.02
2017-08-29T00:03:51.555Z,80.92
2017-08-29T00:05:05.710Z,80.92
2017-08-29T00:06:07.595Z,81.02
2017-08-29T00:07:09.483Z,81.11
2017-08-29T00:08:11.365Z,81.02
2017-08-29T00:09:13.184Z,81.30
2017-08-29T00:10:15.016Z,81.21
2017-08-29T00:11:16.900Z,81.11
2017-08-29T00:12:18.784Z,80.73
2017-08-29T00:13:20.668Z,80.92
2017-08-29T00:14:34.838Z,80.92
2017-08-29T00:15:36.720Z,81.21
2017-08-29T00:16:38.615Z,81.11
2017-08-29T00:17:40.499Z,80.92
2017-08-29T00:18:42.317Z,80.92
2017-08-29T00:19:44.148Z,80.82
2017-08-29T00:20:46.021Z,81.02
2017-08-29T00:21:47.905Z,80.44
2017-08-29T00:22:49.790Z,80.44
2017-08-29T00:24:03.994Z,80.82
2017-08-29T00:25:05.879Z,81.11
2017-08-29T00:26:07.763Z,81.11
2017-08-29T00:27:09.659Z,81.07
2017-08-29T00:28:11.489Z,81.11
2017-08-29T00:29:13.309Z,81.21
2017-08-29T00:30:15.196Z,81.07
2017-08-29T00:31:17.078Z,80.69
2017-08-29T00:32:18.962Z,80.92
2017-08-29T00:33:33.119Z,81.02
2017-08-29T00:34:35.000Z,80.98
2017-08-29T00:35:36.891Z,80.69
2017-08-29T00:36:38.775Z,80.88
2017-08-29T00:37:40.596Z,80.88
2017-08-29T00:38:42.416Z,80.98
2017-08-29T00:39:44.301Z,81.07
2017-08-29T00:40:46.185Z,81.07
2017-08-29T00:41:48.067Z,80.88
2017-08-29T00:43:02.228Z,80.69
2017-08-29T00:44:04.110Z,80.98
2017-08-29T00:45:05.993Z,80.40
2017-08-29T00:46:07.874Z,80.40
2017-08-29T00:47:09.693Z,80.40
2017-08-29T00:48:11.513Z,80.40
2017-08-29T00:49:13.400Z,80.40
2017-08-29T00:50:15.283Z,80.59
2017-08-29T00:51:17.168Z,80.69
2017-08-29T00:52:31.325Z,80.69
2017-08-29T00:53:33.208Z,80.69
2017-08-29T00:54:35.098Z,80.59
2017-08-29T00:55:36.981Z,81.07
2017-08-29T00:56:38.800Z,80.69
2017-08-29T00:57:40.619Z,80.98
2017-08-29T00:58:42.503Z,81.07
2017-08-29T00:59:44.388Z,81.16
2017-08-29T01:00:46.273Z,80.98
2017-08-29T01:02:00.429Z,81.07
2017-08-29T01:03:02.312Z,81.16
2017-08-29T01:04:04.201Z,81.65
2017-08-29T01:05:06.085Z,81.26
2017-08-29T01:06:07.904Z,82.03
2017-08-29T01:07:09.724Z,82.03
2017-08-29T01:08:11.611Z,81.84
2017-08-29T01:09:13.492Z,81.45
2017-08-29T01:10:15.382Z,81.45
2017-08-29T01:11:29.583Z,81.55
2017-08-29T01:12:31.466Z,81.45
2017-08-29T01:13:33.351Z,81.99
2017-08-29T01:14:35.235Z,81.22
2017-08-29T01:15:37.054Z,81.99
2017-08-29T01:16:38.888Z,81.84
2017-08-29T01:17:40.774Z,81.99
2017-08-29T01:18:42.661Z,82.03
2017-08-29T01:19:44.544Z,81.99
2017-08-29T01:20:58.697Z,81.89
2017-08-29T01:22:00.582Z,81.84
2017-08-29T01:23:02.469Z,81.70
2017-08-29T01:24:04.351Z,81.41
2017-08-29T01:25:06.176Z,82.18
2017-08-29T01:26:07.990Z,82.03
2017-08-29T01:27:09.878Z,81.93
2017-08-29T01:28:11.763Z,81.84
2017-08-29T01:29:13.646Z,82.08
2017-08-29T01:30:27.800Z,82.12
2017-08-29T01:31:29.694Z,81.60
2017-08-29T01:32:31.580Z,81.89
2017-08-29T01:33:33.466Z,81.89
2017-08-29T01:34:35.286Z,81.51
2017-08-29T01:35:37.107Z,81.51
2017-08-29T01:36:38.992Z,81.79
2017-08-29T01:37:40.878Z,81.89
2017-08-29T01:38:42.762Z,82.46
2017-08-29T01:39:56.919Z,82.46
2017-08-29T01:40:58.820Z,83.23
2017-08-29T01:42:00.692Z,83.13
2017-08-29T01:43:02.569Z,82.84
2017-08-29T01:44:04.395Z,82.46
2017-08-29T01:45:06.213Z,82.18
2017-08-29T01:46:08.098Z,82.46
2017-08-29T01:47:09.986Z,82.28
2017-08-29T01:48:11.867Z,82.37
2017-08-29T01:49:26.072Z,82.37
2017-08-29T01:50:27.954Z,82.46
2017-08-29T01:51:29.838Z,82.46
2017-08-29T01:52:31.733Z,82.46
2017-08-29T01:53:33.555Z,82.56
2017-08-29T01:54:35.385Z,82.75
2017-08-29T01:55:37.270Z,82.46
2017-08-29T01:56:39.155Z,82.75
2017-08-29T01:57:41.039Z,82.37
2017-08-29T01:58:55.194Z,82.18
2017-08-29T01:59:57.076Z,81.99
2017-08-29T02:00:58.960Z,81.79
2017-08-29T02:02:00.855Z,82.37
2017-08-29T02:03:02.674Z,82.18
2017-08-29T02:04:04.492Z,82.65
2017-08-29T02:05:06.374Z,83.04
2017-08-29T02:06:08.260Z,82.84
2017-08-29T02:07:10.144Z,82.75
2017-08-29T02:08:24.297Z,82.84
2017-08-29T02:09:26.181Z,83.13
2017-08-29T02:10:28.066Z,82.90
2017-08-29T02:11:29.960Z,82.75
2017-08-29T02:12:31.794Z,83.33
2017-08-29T02:13:33.613Z,82.75
2017-08-29T02:14:35.497Z,82.94
2017-08-29T02:15:37.383Z,82.94
2017-08-29T02:16:39.266Z,82.84
2017-08-29T02:17:53.422Z,83.13
2017-08-29T02:18:55.305Z,83.47
2017-08-29T02:19:57.189Z,83.47
2017-08-29T02:20:59.073Z,83.47
2017-08-29T02:22:00.895Z,83.47
2017-08-29T02:23:02.712Z,83.57
2017-08-29T02:24:04.605Z,83.57
2017-08-29T02:25:06.490Z,83.47
2017-08-29T02:26:08.382Z,83.42
2017-08-29T02:27:22.524Z,83.28
2017-08-29T02:28:24.406Z,83.47
2017-08-29T02:29:26.299Z,83.76
2017-08-29T02:30:28.183Z,83.28
2017-08-29T02:31:30.004Z,83.47
2017-08-29T02:32:31.821Z,84.05
2017-08-29T02:33:33.717Z,83.76
2017-08-29T02:34:35.603Z,83.86
2017-08-29T02:35:37.485Z,83.76
2017-08-29T02:36:51.645Z,83.86
2017-08-29T02:37:53.527Z,83.86
2017-08-29T02:38:55.411Z,83.76
2017-08-29T02:39:57.305Z,83.86
2017-08-29T02:40:59.126Z,83.86
2017-08-29T02:42:00.943Z,83.86
2017-08-29T02:43:02.836Z,83.86
2017-08-29T02:44:04.728Z,83.95
2017-08-29T02:45:06.612Z,84.43
2017-08-29T02:46:20.767Z,84.14
2017-08-29T02:47:22.652Z,84.14
2017-08-29T02:48:24.535Z,84.23
2017-08-29T02:49:26.418Z,83.57
2017-08-29T02:50:28.240Z,83.86
2017-08-29T02:51:30.058Z,83.67
2017-08-29T02:52:31.943Z,84.05
2017-08-29T02:53:33.828Z,84.14
2017-08-29T02:54:35.720Z,84.05
2017-08-29T02:55:49.877Z,84.14
2017-08-29T02:56:51.760Z,84.14
2017-08-29T02:57:53.646Z,84.72
2017-08-29T02:58:55.529Z,84.43
2017-08-29T02:59:57.351Z,84.81
2017-08-29T03:00:59.169Z,85.10
2017-08-29T03:02:01.053Z,85.19
2017-08-29T03:03:02.940Z,85.10
2017-08-29T03:04:04.833Z,84.81
2017-08-29T03:05:18.999Z,84.52
2017-08-29T03:06:20.902Z,84.72
2017-08-29T03:07:22.785Z,84.62
2017-08-29T03:08:24.678Z,84.52
2017-08-29T03:09:26.502Z,85.25
2017-08-29T03:10:28.317Z,85.10
2017-08-29T03:11:30.213Z,85.00
2017-08-29T03:12:32.110Z,85.10
2017-08-29T03:13:34.005Z,84.72
2017-08-29T03:14:48.161Z,84.72
2017-08-29T03:15:50.043Z,85.19
2017-08-29T03:16:51.937Z,84.43
2017-08-29T03:17:53.820Z,84.58
2017-08-29T03:18:55.643Z,85.10
2017-08-29T03:19:57.458Z,85.29
2017-08-29T03:20:59.340Z,85.29
2017-08-29T03:22:01.226Z,85.19
2017-08-29T03:23:03.108Z,84.81
2017-08-29T03:24:17.263Z,84.81
2017-08-29T03:25:19.147Z,84.23
2017-08-29T03:26:21.031Z,84.43
2017-08-29T03:27:22.915Z,84.23
2017-08-29T03:28:24.736Z,84.39
2017-08-29T03:29:26.556Z,84.96
2017-08-29T03:30:28.452Z,85.25
2017-08-29T03:31:30.341Z,85.15
2017-08-29T03:32:32.225Z,84.58
2017-08-29T03:33:46.574Z,84.58
2017-08-29T03:34:48.468Z,84.58
2017-08-29T03:35:50.354Z,84.58
2017-08-29T03:36:52.238Z,84.77
2017-08-29T03:37:54.058Z,84.86
2017-08-29T03:38:55.875Z,84.96
2017-08-29T03:39:57.757Z,84.77
2017-08-29T03:40:59.642Z,85.82
2017-08-29T03:42:01.525Z,86.01
2017-08-29T03:43:15.679Z,85.25
2017-08-29T03:44:17.561Z,85.72
2017-08-29T03:45:19.447Z,85.44
2017-08-29T03:46:21.331Z,85.44
2017-08-29T03:47:23.152Z,85.53
2017-08-29T03:48:24.982Z,85.87
2017-08-29T03:49:26.880Z,86.44
2017-08-29T03:50:28.766Z,86.82
2017-08-29T03:51:30.653Z,86.92
2017-08-29T03:52:44.809Z,86.92
2017-08-29T03:53:46.690Z,86.35
2017-08-29T03:54:48.583Z,86.63
2017-08-29T03:55:50.479Z,86.39
2017-08-29T03:56:52.301Z,85.82
2017-08-29T03:57:54.121Z,85.25
2017-08-29T03:58:56.006Z,85.21
2017-08-29T03:59:57.891Z,84.77
2017-08-29T04:00:59.778Z,84.67
2017-08-29T04:02:13.995Z,85.05
2017-08-29T04:03:15.883Z,85.68
2017-08-29T04:04:17.764Z,85.49
2017-08-29T04:05:19.649Z,86.35
2017-08-29T04:06:21.472Z,86.44
2017-08-29T04:07:23.300Z,85.49
2017-08-29T04:08:25.186Z,85.82
2017-08-29T04:09:27.071Z,86.10
2017-08-29T04:10:28.958Z,85.53
2017-08-29T04:11:43.112Z,85.34
2017-08-29T04:12:44.998Z,85.82
2017-08-29T04:13:46.886Z,86.30
2017-08-29T04:14:48.773Z,86.20
2017-08-29T04:15:50.594Z,86.77
2017-08-29T04:16:52.421Z,86.77
2017-08-29T04:17:54.310Z,86.10
2017-08-29T04:18:56.194Z,86.10
2017-08-29T04:19:58.095Z,85.91
2017-08-29T04:21:12.253Z,86.39
2017-08-29T04:22:14.150Z,86.10
2017-08-29T04:23:16.036Z,86.30
2017-08-29T04:24:17.940Z,86.10
2017-08-29T04:25:19.760Z,86.39
2017-08-29T04:26:21.581Z,86.30
2017-08-29T04:27:23.469Z,85.91
2017-08-29T04:28:25.360Z,86.39
2017-08-29T04:29:27.245Z,86.39
2017-08-29T04:30:41.415Z,86.10
2017-08-29T04:31:43.324Z,86.68
2017-08-29T04:32:45.238Z,86.20
2017-08-29T04:33:47.135Z,86.68
2017-08-29T04:34:48.961Z,86.10
2017-08-29T04:35:50.785Z,85.77
2017-08-29T04:36:52.684Z,85.10
2017-08-29T04:37:54.583Z,85.10
2017-08-29T04:38:56.468Z,84.66
2017-08-29T04:40:10.627Z,83.70
2017-08-29T04:41:12.511Z,83.51
2017-08-29T04:42:14.398Z,82.94
2017-08-29T04:43:16.284Z,82.70
2017-08-29T04:44:18.113Z,82.41
2017-08-29T04:45:19.947Z,81.93
2017-08-29T04:46:21.837Z,81.74
2017-08-29T04:47:23.726Z,81.45
2017-08-29T04:48:25.613Z,81.36
2017-08-29T04:49:39.905Z,81.26
2017-08-29T04:50:41.816Z,80.69
2017-08-29T04:51:43.682Z,80.30
2017-08-29T04:52:45.563Z,80.98
2017-08-29T04:53:47.391Z,81.07
2017-08-29T04:54:49.214Z,81.07
2017-08-29T04:55:51.101Z,80.79
2017-08-29T04:56:52.987Z,80.59
2017-08-29T04:57:54.890Z,80.50
2017-08-29T04:59:09.089Z,80.59
2017-08-29T05:00:10.973Z,80.98
2017-08-29T05:01:12.861Z,81.55
2017-08-29T05:02:14.748Z,81.16
2017-08-29T05:03:16.600Z,81.65
2017-08-29T05:04:18.399Z,81.55
2017-08-29T05:05:20.299Z,81.65
2017-08-29T05:06:22.186Z,81.55
2017-08-29T05:07:24.087Z,81.65
2017-08-29T05:08:38.246Z,81.30
2017-08-29T05:09:40.130Z,80.88
2017-08-29T05:10:42.017Z,81.02
2017-08-29T05:11:43.904Z,81.21
2017-08-29T05:12:45.741Z,80.63
2017-08-29T05:13:47.564Z,80.35
2017-08-29T05:14:49.452Z,80.54
2017-08-29T05:15:51.338Z,80.88
2017-08-29T05:16:53.228Z,80.98
2017-08-29T05:18:07.387Z,82.03
2017-08-29T05:19:09.273Z,81.78
2017-08-29T05:20:11.163Z,81.11
2017-08-29T05:21:13.053Z,81.02
2017-08-29T05:22:14.881Z,81.02
2017-08-29T05:23:16.704Z,80.92
2017-08-29T05:24:18.592Z,81.11
2017-08-29T05:25:20.482Z,81.49
2017-08-29T05:26:22.377Z,82.07
2017-08-29T05:27:36.536Z,81.97
2017-08-29T05:28:38.421Z,82.41
2017-08-29T05:29:40.310Z,82.41
2017-08-29T05:30:42.198Z,82.98
2017-08-29T05:31:44.022Z,82.89
2017-08-29T05:32:45.845Z,82.45
2017-08-29T05:33:47.745Z,82.83
2017-08-29T05:34:49.634Z,82.41
2017-08-29T05:35:51.540Z,82.89
2017-08-29T05:37:05.701Z,83.08
2017-08-29T05:38:07.586Z,82.93
2017-08-29T05:39:09.474Z,82.45
2017-08-29T05:40:11.361Z,82.07
2017-08-29T05:41:13.198Z,82.07
2017-08-29T05:42:15.022Z,82.17
2017-08-29T05:43:16.907Z,81.73
2017-08-29T05:44:18.797Z,81.34
2017-08-29T05:45:20.680Z,80.87
2017-08-29T05:46:34.852Z,80.52
2017-08-29T05:47:36.733Z,80.14
2017-08-29T05:48:38.621Z,79.95
2017-08-29T05:49:40.505Z,79.95
2017-08-29T05:50:42.344Z,79.47
2017-08-29T05:51:44.168Z,78.80
2017-08-29T05:52:46.056Z,78.93
2017-08-29T05:53:47.945Z,79.51
2017-08-29T05:54:49.833Z,78.93
2017-08-29T05:56:04.044Z,78.36
2017-08-29T05:57:05.930Z,78.45
2017-08-29T05:58:07.817Z,78.17
2017-08-29T05:59:09.708Z,76.64
2017-08-29T06:00:11.535Z,75.81
2017-08-29T06:01:13.360Z,76.00
2017-08-29T06:02:15.250Z,76.29
2017-08-29T06:03:17.139Z,76.39
2017-08-29T06:04:19.028Z,75.75
2017-08-29T06:05:33.208Z,76.14
2017-08-29T06:06:35.076Z,76.14
2017-08-29T06:07:36.964Z,75.27
2017-08-29T06:08:38.867Z,75.21
2017-08-29T06:09:40.694Z,75.12
2017-08-29T06:10:42.521Z,75.21
2017-08-29T06:11:44.406Z,75.02
2017-08-29T06:12:46.296Z,74.93
2017-08-29T06:13:48.185Z,73.97
2017-08-29T06:15:02.346Z,73.14
2017-08-29T06:16:04.230Z,73.33
2017-08-29T06:17:06.120Z,73.14
2017-08-29T06:18:08.005Z,73.24
2017-08-29T06:19:09.832Z,72.75
2017-08-29T06:20:11.670Z,72.28
2017-08-29T06:21:13.578Z,72.18
2017-08-29T06:22:15.468Z,72.37
2017-08-29T06:23:17.355Z,72.75
2017-08-29T06:24:31.520Z,72.37
2017-08-29T06:25:33.407Z,72.08
2017-08-29T06:26:35.294Z,71.98
2017-08-29T06:27:37.183Z,72.41
2017-08-29T06:28:39.009Z,72.22
2017-08-29T06:29:40.838Z,70.58
2017-08-29T06:30:42.725Z,70.17
2017-08-29T06:31:44.615Z,70.29
2017-08-29T06:32:46.504Z,70.10
2017-08-29T06:34:00.668Z,70.78
2017-08-29T06:35:02.570Z,70.49
2017-08-29T06:36:04.456Z,70.20
2017-08-29T06:37:06.344Z,70.39
2017-08-29T06:38:08.175Z,69.72
2017-08-29T06:39:10.000Z,69.72
2017-08-29T06:40:11.887Z,70.29
2017-08-29T06:41:13.776Z,69.91
2017-08-29T06:42:15.676Z,70.49
2017-08-29T06:43:29.895Z,70.29
2017-08-29T06:44:31.775Z,69.81
2017-08-29T06:45:33.662Z,70.10
2017-08-29T06:46:35.551Z,70.01
2017-08-29T06:47:37.380Z,69.53
2017-08-29T06:48:39.206Z,69.34
2017-08-29T06:49:41.097Z,69.43
2017-08-29T06:50:42.986Z,69.75
2017-08-29T06:51:44.875Z,69.56
2017-08-29T06:52:59.085Z,69.75
2017-08-29T06:54:00.972Z,69.37
2017-08-29T06:55:02.859Z,69.85
2017-08-29T06:56:04.749Z,69.08
2017-08-29T06:57:06.581Z,69.18
2017-08-29T06:58:08.405Z,69.46
2017-08-29T06:59:10.292Z,69.27
2017-08-29T07:00:12.180Z,69.46
2017-08-29T07:01:14.069Z,68.98
2017-08-29T07:02:28.233Z,68.21
2017-08-29T07:03:30.117Z,68.21
2017-08-29T07:04:32.008Z,67.64
2017-08-29T07:05:33.898Z,67.68
2017-08-29T07:06:35.732Z,68.25
2017-08-29T07:07:37.556Z,67.77
2017-08-29T07:08:39.443Z,68.15
2017-08-29T07:09:41.333Z,68.35
2017-08-29T07:10:43.230Z,68.25
2017-08-29T07:11:57.391Z,68.25
2017-08-29T07:12:59.281Z,68.06
2017-08-29T07:14:01.168Z,67.96
2017-08-29T07:15:03.055Z,68.25
2017-08-29T07:16:04.884Z,68.06
2017-08-29T07:17:06.712Z,67.96
2017-08-29T07:18:08.600Z,68.06
2017-08-29T07:19:10.490Z,68.15
2017-08-29T07:20:12.377Z,66.91
2017-08-29T07:21:26.542Z,66.33
2017-08-29T07:22:28.428Z,66.04
2017-08-29T07:23:30.316Z,66.04
2017-08-29T07:24:32.205Z,66.23
2017-08-29T07:25:34.036Z,65.66
2017-08-29T07:26:35.858Z,65.17
2017-08-29T07:27:37.757Z,65.46
2017-08-29T07:28:39.645Z,65.46
2017-08-29T07:29:41.534Z,65.84
2017-08-29T07:30:55.698Z,65.56
2017-08-29T07:31:57.584Z,65.46
2017-08-29T07:32:59.473Z,65.66
2017-08-29T07:34:01.367Z,65.37
2017-08-29T07:35:03.200Z,65.27
2017-08-29T07:36:05.028Z,65.27
2017-08-29T07:37:06.915Z,64.82
2017-08-29T07:38:08.806Z,64.22
2017-08-29T07:39:10.707Z,64.63
2017-08-29T07:40:24.872Z,65.30
2017-08-29T07:41:26.758Z,65.11
2017-08-29T07:42:28.647Z,65.30
2017-08-29T07:43:30.535Z,64.82
2017-08-29T07:44:32.379Z,64.25
2017-08-29T07:45:34.191Z,64.28
2017-08-29T07:46:36.090Z,63.70
2017-08-29T07:47:37.997Z,63.89
2017-08-29T07:48:39.887Z,64.28
2017-08-29T07:49:54.101Z,64.56
2017-08-29T07:50:55.989Z,63.89
2017-08-29T07:51:57.886Z,63.70
2017-08-29T07:52:59.781Z,63.51
2017-08-29T07:54:01.610Z,63.51
2017-08-29T07:55:03.436Z,63.51
2017-08-29T07:56:05.324Z,63.41
2017-08-29T07:57:07.216Z,63.41
2017-08-29T07:58:09.105Z,63.44
2017-08-29T07:59:23.269Z,63.64
2017-08-29T08:00:25.155Z,62.96
2017-08-29T08:01:27.043Z,63.15
2017-08-29T08:02:28.930Z,62.96
2017-08-29T08:03:30.759Z,62.77
2017-08-29T08:04:32.586Z,62.77
2017-08-29T08:05:34.474Z,63.15
2017-08-29T08:06:36.364Z,62.96
2017-08-29T08:07:38.263Z,63.64
2017-08-29T08:08:52.430Z,63.64
2017-08-29T08:09:54.319Z,63.82
2017-08-29T08:10:56.207Z,63.73
2017-08-29T08:11:58.096Z,63.06
2017-08-29T08:12:59.924Z,63.06
2017-08-29T08:14:01.762Z,62.57
2017-08-29T08:15:03.652Z,62.57
2017-08-29T08:16:05.545Z,62.87
2017-08-29T08:17:07.439Z,63.06
2017-08-29T08:18:21.604Z,63.18
2017-08-29T08:19:23.515Z,63.09
2017-08-29T08:20:25.459Z,63.09
2017-08-29T08:21:27.396Z,62.90
2017-08-29T08:22:29.278Z,62.41
2017-08-29T08:23:31.154Z,62.32
2017-08-29T08:24:33.089Z,62.12
2017-08-29T08:25:35.026Z,62.22
2017-08-29T08:26:36.960Z,62.41
2017-08-29T08:27:51.196Z,62.12
2017-08-29T08:28:53.106Z,62.32
2017-08-29T08:29:55.034Z,62.22
2017-08-29T08:30:56.970Z,62.12
2017-08-29T08:31:58.840Z,62.03
2017-08-29T08:33:00.708Z,61.87
2017-08-29T08:34:02.665Z,61.93
2017-08-29T08:35:04.596Z,61.74
2017-08-29T08:36:06.536Z,61.65
2017-08-29T08:37:20.774Z,61.45
2017-08-29T08:38:22.696Z,61.93
2017-08-29T08:39:24.639Z,61.29
2017-08-29T08:40:26.573Z,61.38
2017-08-29T08:41:28.437Z,61.48
2017-08-29T08:42:30.312Z,61.48
2017-08-29T08:43:32.230Z,61.58
2017-08-29T08:44:34.162Z,61.96
2017-08-29T08:45:36.107Z,61.38
2017-08-29T08:46:50.301Z,61.29
2017-08-29T08:47:52.214Z,61.38
2017-08-29T08:48:54.105Z,61.29
2017-08-29T08:49:55.995Z,61.38
2017-08-29T08:50:57.822Z,61.38
2017-08-29T08:51:59.654Z,60.90
2017-08-29T08:53:01.544Z,61.19
2017-08-29T08:54:03.399Z,61.10
2017-08-29T08:55:05.227Z,60.32
2017-08-29T08:56:19.412Z,61.03
2017-08-29T08:57:21.299Z,60.74
2017-08-29T08:58:23.191Z,60.35
2017-08-29T08:59:25.077Z,60.55
2017-08-29T09:00:26.919Z,60.06
2017-08-29T09:01:28.766Z,60.16
2017-08-29T09:02:30.656Z,59.97
2017-08-29T09:03:32.546Z,59.65
2017-08-29T09:04:34.446Z,59.78
2017-08-29T09:05:48.611Z,59.78
2017-08-29T09:06:50.498Z,59.68
2017-08-29T09:07:52.389Z,59.39
2017-08-29T09:08:54.309Z,59.30
2017-08-29T09:09:56.144Z,59.39
2017-08-29T09:10:57.974Z,59.20
2017-08-29T09:11:59.862Z,59.10
2017-08-29T09:13:01.758Z,58.91
2017-08-29T09:14:03.645Z,59.20
2017-08-29T09:15:17.810Z,58.81
2017-08-29T09:16:19.713Z,58.81
2017-08-29T09:17:21.602Z,59.39
2017-08-29T09:18:23.496Z,59.39
2017-08-29T09:19:25.326Z,59.48
2017-08-29T09:20:27.156Z,59.30
2017-08-29T09:21:29.048Z,59.39
2017-08-29T09:22:30.938Z,59.30
2017-08-29T09:23:32.837Z,59.39
2017-08-29T09:24:47.013Z,59.39
2017-08-29T09:25:48.897Z,59.39
2017-08-29T09:26:50.796Z,59.13
2017-08-29T09:27:52.681Z,59.13
2017-08-29T09:28:54.522Z,59.03
2017-08-29T09:29:56.351Z,58.65
2017-08-29T09:30:58.243Z,59.03
2017-08-29T09:32:00.132Z,58.65
2017-08-29T09:33:02.031Z,58.75
2017-08-29T09:34:16.196Z,59.03
2017-08-29T09:35:18.084Z,58.75
2017-08-29T09:36:19.975Z,58.84
2017-08-29T09:37:21.862Z,58.94
2017-08-29T09:38:23.689Z,58.55
2017-08-29T09:39:25.520Z,58.94
2017-08-29T09:40:27.410Z,58.17
2017-08-29T09:41:29.303Z,58.55
2017-08-29T09:42:31.191Z,58.29
2017-08-29T09:43:45.360Z,58.58
2017-08-29T09:44:47.254Z,58.39
2017-08-29T09:45:49.138Z,58.36
2017-08-29T09:46:51.027Z,57.52
2017-08-29T09:47:52.869Z,57.39
2017-08-29T09:48:54.700Z,57.52
2017-08-29T09:49:56.589Z,57.29
2017-08-29T09:50:58.483Z,57.14
2017-08-29T09:52:00.370Z,57.23
2017-08-29T09:53:14.535Z,57.23
2017-08-29T09:54:16.423Z,57.04
2017-08-29T09:55:18.315Z,57.14
2017-08-29T09:56:20.206Z,57.23
2017-08-29T09:57:22.049Z,57.14
2017-08-29T09:58:23.877Z,57.23
2017-08-29T09:59:25.772Z,57.52
2017-08-29T10:00:27.660Z,57.14
2017-08-29T10:01:29.550Z,57.23
2017-08-29T10:02:43.715Z,56.65
2017-08-29T10:03:45.602Z,56.56
2017-08-29T10:04:47.503Z,56.26
2017-08-29T10:05:49.394Z,55.40
2017-08-29T10:06:51.228Z,55.40
2017-08-29T10:07:53.056Z,55.40
2017-08-29T10:08:54.948Z,55.59
2017-08-29T10:09:56.839Z,55.59
2017-08-29T10:10:58.729Z,55.59
2017-08-29T10:12:12.894Z,56.07
2017-08-29T10:13:14.781Z,55.68
2017-08-29T10:14:16.672Z,55.68
2017-08-29T10:15:18.565Z,55.68
2017-08-29T10:16:20.396Z,55.62
2017-08-29T10:17:22.223Z,55.90
2017-08-29T10:18:24.116Z,55.90
2017-08-29T10:19:26.008Z,56.26
2017-08-29T10:20:27.897Z,56.48
2017-08-29T10:21:42.076Z,56.10
2017-08-29T10:22:43.964Z,56.20
2017-08-29T10:23:45.864Z,55.71
2017-08-29T10:24:47.742Z,55.52
2017-08-29T10:25:49.586Z,56.00
2017-08-29T10:26:51.414Z,55.42
2017-08-29T10:27:53.315Z,55.62
2017-08-29T10:28:55.198Z,55.65
2017-08-29T10:29:57.102Z,55.26
2017-08-29T10:31:11.265Z,55.35
2017-08-29T10:32:13.152Z,54.97
2017-08-29T10:33:15.068Z,55.26
2017-08-29T10:34:16.966Z,55.35
2017-08-29T10:35:18.798Z,55.35
2017-08-29T10:36:20.625Z,55.35
2017-08-29T10:37:22.512Z,55.35
2017-08-29T10:38:24.415Z,54.87
2017-08-29T10:39:26.304Z,54.29
2017-08-29T10:40:40.477Z,54.39
2017-08-29T10:41:42.363Z,54.49
2017-08-29T10:42:44.252Z,54.58
2017-08-29T10:43:46.144Z,54.19
2017-08-29T10:44:47.980Z,54.00
2017-08-29T10:45:49.809Z,53.52
2017-08-29T10:46:51.700Z,53.71
2017-08-29T10:47:53.595Z,54.00
2017-08-29T10:48:55.495Z,53.33
2017-08-29T10:50:09.661Z,53.45
2017-08-29T10:51:11.566Z,53.81
2017-08-29T10:52:13.452Z,52.97
2017-08-29T10:53:15.343Z,53.16
2017-08-29T10:54:17.184Z,52.97
2017-08-29T10:55:19.012Z,52.87
2017-08-29T10:56:20.905Z,52.87
2017-08-29T10:57:22.795Z,53.55
2017-08-29T10:58:24.694Z,53.45
2017-08-29T10:59:38.908Z,53.25
2017-08-29T11:00:40.796Z,54.13
2017-08-29T11:01:42.692Z,53.83
2017-08-29T11:02:44.579Z,53.64
2017-08-29T11:03:46.410Z,53.55
2017-08-29T11:04:48.238Z,53.83
2017-08-29T11:05:50.128Z,52.97
2017-08-29T11:06:52.021Z,52.67
2017-08-29T11:07:53.910Z,52.77
2017-08-29T11:09:08.089Z,52.48
2017-08-29T11:10:09.974Z,52.87
2017-08-29T11:11:11.865Z,52.51
2017-08-29T11:12:13.753Z,52.39
2017-08-29T11:13:15.593Z,52.87
2017-08-29T11:14:17.439Z,52.97
2017-08-29T11:15:19.931Z,52.97
2017-08-29T11:16:22.729Z,53.55
2017-08-29T11:17:25.514Z,52.89
2017-08-29T11:18:40.473Z,52.99
2017-08-29T11:19:43.195Z,52.70
2017-08-29T11:20:45.738Z,52.99
2017-08-29T11:21:48.589Z,52.19
2017-08-29T11:22:51.484Z,52.31
2017-08-29T11:23:53.870Z,52.41
2017-08-29T11:24:56.595Z,52.61
2017-08-29T11:25:59.238Z,52.12
2017-08-29T11:27:02.045Z,52.12
2017-08-29T11:28:16.952Z,52.02
2017-08-29T11:29:19.712Z,52.12
2017-08-29T11:30:22.508Z,52.12
2017-08-29T11:31:25.201Z,52.41
2017-08-29T11:32:28.312Z,52.39
2017-08-29T11:33:30.965Z,52.29
2017-08-29T11:34:33.017Z,52.58
2017-08-29T11:35:34.909Z,52.22
2017-08-29T11:36:36.797Z,52.02
2017-08-29T11:37:50.966Z,51.73
2017-08-29T11:38:52.856Z,51.64
2017-08-29T11:39:54.748Z,51.73
2017-08-29T11:40:56.640Z,51.93
2017-08-29T11:41:58.482Z,51.83
2017-08-29T11:43:00.314Z,50.67
2017-08-29T11:44:02.211Z,50.76
2017-08-29T11:45:04.097Z,50.86
2017-08-29T11:46:05.989Z,50.96
2017-08-29T11:47:20.203Z,50.96
2017-08-29T11:48:22.094Z,50.98
2017-08-29T11:49:23.984Z,51.64
2017-08-29T11:50:25.877Z,51.44
2017-08-29T11:51:27.721Z,51.83
2017-08-29T11:52:29.548Z,51.64
2017-08-29T11:53:31.440Z,51.73
2017-08-29T11:54:33.331Z,52.02
2017-08-29T11:55:35.230Z,52.22
2017-08-29T11:56:49.406Z,52.51
2017-08-29T11:57:51.284Z,52.31
2017-08-29T11:58:53.183Z,52.22
2017-08-29T11:59:55.122Z,52.51
2017-08-29T12:00:56.954Z,52.31
2017-08-29T12:01:58.785Z,52.12
2017-08-29T12:03:00.676Z,52.41
2017-08-29T12:04:02.647Z,52.41
2017-08-29T12:05:04.500Z,51.83
2017-08-29T12:06:18.666Z,51.73
2017-08-29T12:07:20.554Z,51.64
2017-08-29T12:08:22.447Z,51.83
2017-08-29T12:09:24.337Z,52.41
2017-08-29T12:10:26.173Z,51.83
2017-08-29T12:11:28.003Z,51.54
2017-08-29T12:12:29.896Z,51.54
2017-08-29T12:13:31.786Z,51.61
2017-08-29T12:14:33.671Z,52.19
2017-08-29T12:15:47.840Z,52.39
2017-08-29T12:16:49.742Z,51.51
2017-08-29T12:17:51.634Z,51.61
2017-08-29T12:18:53.553Z,52.17
2017-08-29T12:19:55.428Z,51.59
2017-08-29T12:20:57.652Z,51.71
2017-08-29T12:21:59.521Z,51.03
2017-08-29T12:23:01.424Z,50.74
2017-08-29T12:24:03.303Z,50.74
2017-08-29T12:25:17.479Z,50.65
2017-08-29T12:26:19.438Z,50.57
2017-08-29T12:27:21.391Z,50.48
2017-08-29T12:28:23.597Z,50.38
2017-08-29T12:29:25.434Z,50.28
2017-08-29T12:30:27.631Z,50.18
2017-08-29T12:31:29.875Z,50.57
2017-08-29T12:32:31.827Z,49.82
2017-08-29T12:33:34.105Z,49.70
2017-08-29T12:34:48.391Z,49.73
2017-08-29T12:35:50.320Z,49.63
2017-08-29T12:36:52.209Z,49.82
2017-08-29T12:37:54.130Z,49.54
2017-08-29T12:38:55.971Z,49.73
2017-08-29T12:39:57.815Z,49.05
2017-08-29T12:41:00.128Z,49.24
2017-08-29T12:42:02.032Z,49.34
2017-08-29T12:43:03.935Z,49.54
2017-08-29T12:44:18.182Z,50.21
2017-08-29T12:45:20.387Z,50.12
2017-08-29T12:46:22.282Z,50.21
2017-08-29T12:47:24.172Z,50.21
2017-08-29T12:48:26.374Z,50.02
2017-08-29T12:49:28.196Z,50.31
2017-08-29T12:50:30.088Z,50.12
2017-08-29T12:51:31.979Z,50.67
2017-08-29T12:52:33.867Z,50.28
2017-08-29T12:53:48.065Z,50.38
2017-08-29T12:54:49.957Z,50.48
2017-08-29T12:55:51.852Z,49.99
2017-08-29T12:56:53.743Z,50.09
2017-08-29T12:57:55.578Z,50.12
2017-08-29T12:58:57.406Z,49.54
2017-08-29T12:59:59.306Z,49.34
2017-08-29T13:01:01.194Z,49.44
2017-08-29T13:02:03.095Z,49.60
2017-08-29T13:03:17.262Z,50.09
2017-08-29T13:04:19.152Z,49.99
2017-08-29T13:05:21.058Z,49.60
2017-08-29T13:06:22.982Z,50.09
2017-08-29T13:07:24.818Z,49.41
2017-08-29T13:08:26.946Z,49.41
2017-08-29T13:09:28.804Z,49.41
2017-08-29T13:10:30.708Z,49.24
2017-08-29T13:11:32.587Z,49.24
2017-08-29T13:12:46.804Z,49.24
2017-08-29T13:13:48.695Z,49.44
2017-08-29T13:14:50.587Z,49.15
2017-08-29T13:15:52.488Z,49.24
2017-08-29T13:16:54.321Z,49.34
2017-08-29T13:17:56.148Z,49.34
2017-08-29T13:18:58.047Z,49.07
2017-08-29T13:19:59.939Z,49.37
2017-08-29T13:21:01.834Z,49.05
2017-08-29T13:22:15.996Z,49.44
2017-08-29T13:23:17.887Z,49.54
2017-08-29T13:24:19.780Z,49.82
2017-08-29T13:25:21.676Z,49.82
2017-08-29T13:26:23.521Z,49.63
2017-08-29T13:27:25.353Z,49.54
2017-08-29T13:28:27.244Z,49.56
2017-08-29T13:29:29.138Z,49.54
2017-08-29T13:30:31.030Z,49.27
2017-08-29T13:31:45.203Z,48.88
2017-08-29T13:32:47.089Z,48.59
2017-08-29T13:33:48.980Z,48.59
2017-08-29T13:34:50.903Z,48.79